Time;durP1;ratioP1;P1;durP2;ratioP2;P2;SDS_P1;SDS_P2;PMS_P1;PMS_P2;Temp;Humidity;BMP_temperature;BMP_pressure;BME280_temperature;BME280_humidity;BME280_pressure;Samples;Min_cycle;Max_cycle;Signal;HPM_P1;HPM_P2
2021/11/10 00:04:13;;;;;;;1999.90;999.90;;;;;;;5.86;72.97;102320.72;15716204;28;20109;-57
2021/11/10 00:11:46;;;;;;;1999.90;999.90;;;;;;;5.68;73.01;102342.16;15720696;28;20037;-60
2021/11/10 00:19:20;;;;;;;1999.90;999.90;;;;;;;5.71;73.70;102333.31;15712758;28;20053;-56
2021/11/10 00:26:52;;;;;;;1999.90;999.90;;;;;;;5.66;72.77;102330.50;15684887;28;20051;-56
2021/11/10 00:34:26;;;;;;;1999.90;999.90;;;;;;;5.53;73.12;102349.47;15723311;28;20032;-57
2021/11/10 00:41:58;;;;;;;1999.90;999.90;;;;;;;5.45;72.55;102334.97;15720434;28;20483;-58
2021/11/10 00:49:32;;;;;;;1999.90;999.90;;;;;;;5.20;73.83;102329.94;15719025;28;20446;-61
2021/11/10 00:57:05;;;;;;;1999.90;999.90;;;;;;;5.21;73.46;102314.22;15691794;28;20041;-60
2021/11/10 01:04:41;;;;;;;1999.90;999.90;;;;;;;5.04;73.61;102311.50;15704009;28;20048;-59
2021/11/10 01:12:15;;;;;;;1999.90;999.90;;;;;;;5.04;74.09;102308.75;15686542;28;20049;-61
2021/11/10 01:19:49;;;;;;;1999.90;999.90;;;;;;;4.87;74.43;102294.13;15734738;28;20406;-62
2021/11/10 01:27:22;;;;;;;1999.90;999.90;;;;;;;4.83;74.16;102295.72;15733184;28;20578;-56
2021/11/10 01:34:57;;;;;;;1999.90;999.90;;;;;;;4.88;73.81;102293.03;15716512;28;20044;-59
2021/11/10 01:42:30;;;;;;;1999.90;999.90;;;;;;;4.80;73.34;102277.72;15734593;28;20063;-59
2021/11/10 01:50:07;;;;;;;1999.90;999.90;;;;;;;4.67;74.02;102249.59;15705105;28;20041;-64
2021/11/10 01:57:40;;;;;;;1999.90;999.90;;;;;;;4.76;73.41;102256.34;15718082;28;20041;-60
2021/11/10 02:05:16;;;;;;;1999.90;999.90;;;;;;;4.72;73.10;102247.75;15729733;28;20044;-59
2021/11/10 02:12:49;;;;;;;1999.90;999.90;;;;;;;4.69;73.29;102234.44;15713750;28;20056;-56
2021/11/10 02:20:31;;;;;;;1999.90;999.90;;;;;;;4.69;73.12;102226.16;15728265;28;20099;-58
2021/11/10 02:28:11;;;;;;;1999.90;999.90;;;;;;;4.59;73.47;102209.41;15688568;28;20042;-58
2021/11/10 02:35:43;;;;;;;1999.90;999.90;;;;;;;4.52;73.47;102200.47;15729133;28;20071;-59
2021/11/10 02:43:17;;;;;;;1999.90;999.90;;;;;;;4.75;74.79;102191.91;15671070;28;20405;-60
2021/11/10 02:50:50;;;;;;;1999.90;999.90;;;;;;;4.63;76.15;102186.50;15703287;28;20033;-59
2021/11/10 02:58:24;;;;;;;1999.90;999.90;;;;;;;4.84;76.46;102184.00;15686646;28;20048;-55
2021/11/10 03:05:57;;;;;;;1999.90;999.90;;;;;;;4.48;77.73;102169.75;15705516;28;20071;-61
2021/11/10 03:13:39;;;;;;;1999.90;999.90;;;;;;;4.81;76.26;102168.75;15727671;28;20045;-62
2021/11/10 03:21:12;;;;;;;1999.90;999.90;;;;;;;4.79;76.73;102162.63;15746597;28;20646;-59
2021/11/10 03:28:46;;;;;;;1999.90;999.90;;;;;;;4.82;77.04;102162.13;15685557;28;20452;-58
2021/11/10 03:36:18;;;;;;;1999.90;999.90;;;;;;;4.82;74.74;102166.81;15684688;28;20160;-58
2021/11/10 03:43:54;;;;;;;;;;;;;;;4.79;74.53;102159.03;15684375;28;20047;-59
2021/11/10 03:51:28;;;;;;;1999.90;999.90;;;;;;;4.54;73.96;102162.34;15685010;28;20122;-58
2021/11/10 03:59:04;;;;;;;1999.90;999.90;;;;;;;4.59;73.85;102146.66;15702041;28;20048;-61
2021/11/10 04:06:38;;;;;;;1999.90;999.90;;;;;;;4.51;72.83;102163.69;15719418;28;20070;-58
2021/11/10 04:14:14;;;;;;;1999.90;999.90;;;;;;;4.45;73.44;102159.19;15706552;28;20044;-61
2021/11/10 04:21:48;;;;;;;1999.90;999.90;;;;;;;4.20;73.54;102158.88;15705398;28;20044;-60
2021/11/10 04:29:22;;;;;;;1999.90;999.90;;;;;;;4.11;73.17;102155.69;15687488;28;20041;-63
2021/11/10 04:36:56;;;;;;;1999.90;999.90;;;;;;;3.86;73.46;102171.91;15684055;28;20787;-60
2021/11/10 04:44:31;;;;;;;1999.90;999.90;;;;;;;3.95;73.53;102143.59;15722309;28;20036;-60
2021/11/10 04:52:05;;;;;;;1999.90;999.90;;;;;;;3.72;74.03;102147.38;15703283;28;20094;-61
2021/11/10 04:59:38;;;;;;;1999.90;999.90;;;;;;;3.74;73.74;102144.38;15698507;28;20041;-59
2021/11/10 05:07:12;;;;;;;1999.90;999.90;;;;;;;3.70;73.54;102151.50;15696363;28;20129;-58
2021/11/10 05:14:46;;;;;;;1999.90;999.90;;;;;;;3.70;73.43;102151.50;15713263;28;20512;-60
2021/11/10 05:22:20;;;;;;;1999.90;999.90;;;;;;;3.62;73.18;102127.91;15683705;28;20037;-58
2021/11/10 05:29:54;;;;;;;1999.90;999.90;;;;;;;3.56;73.86;102131.69;15728223;28;20044;-57
2021/11/10 05:37:26;;;;;;;1999.90;999.90;;;;;;;3.42;74.11;102113.78;15737350;28;20067;-63
2021/11/10 05:45:19;;;;;;;1999.90;999.90;;;;;;;3.47;73.69;102117.47;15721667;28;20417;-58
2021/11/10 05:52:52;;;;;;;1999.90;999.90;;;;;;;3.41;73.57;102121.22;15714479;28;20053;-59
2021/11/10 06:00:27;;;;;;;1999.90;999.90;;;;;;;3.38;74.08;102115.38;15723271;28;20425;-60
2021/11/10 06:08:00;;;;;;;1999.90;999.90;;;;;;;3.28;73.34;102118.81;15712160;28;20429;-60
2021/11/10 06:15:34;;;;;;;1999.90;999.90;;;;;;;3.39;74.01;102131.69;15690004;28;20098;-59
2021/11/10 06:23:07;;;;;;;1999.90;999.90;;;;;;;3.34;73.95;102105.94;15713391;28;20084;-63
2021/11/10 06:30:41;;;;;;;1999.90;999.90;;;;;;;3.41;73.89;102118.47;15708091;28;20037;-59
2021/11/10 06:38:14;;;;;;;1999.90;999.90;;;;;;;3.54;73.44;102121.97;15699872;28;20068;-60
2021/11/10 06:45:48;;;;;;;1999.90;999.90;;;;;;;3.68;74.02;102134.34;15697788;28;20064;-64
2021/11/10 06:53:20;;;;;;;1999.90;999.90;;;;;;;3.83;72.90;102120.75;15702859;28;20060;-63
2021/11/10 07:00:54;;;;;;;1999.90;999.90;;;;;;;3.44;75.81;102103.34;15720212;28;20045;-64
2021/11/10 07:08:27;;;;;;;1999.90;999.90;;;;;;;4.03;75.54;102114.69;15746564;28;20037;-64
2021/11/10 07:16:01;;;;;;;1999.90;999.90;;;;;;;4.08;75.71;102117.53;15745434;28;20044;-64
2021/11/10 07:23:34;;;;;;;1999.90;999.90;;;;;;;4.80;75.36;102133.91;15713321;28;20132;-63
2021/11/10 07:31:08;;;;;;;1999.90;999.90;;;;;;;5.41;72.80;102131.69;15745322;28;20075;-62
2021/11/10 07:38:40;;;;;;;1999.90;999.90;;;;;;;5.55;72.12;102157.03;15720459;28;20432;-64
2021/11/10 07:46:16;;;;;;;1999.90;999.90;;;;;;;5.88;70.54;102166.13;15717570;28;20394;-60
2021/11/10 07:53:49;;;;;;;1999.90;999.90;;;;;;;6.05;71.71;102150.22;15726525;28;20135;-62
2021/11/10 08:01:23;;;;;;;1999.90;999.90;;;;;;;6.39;70.51;102169.25;15726145;28;20102;-62
2021/11/10 08:08:56;;;;;;;1999.90;999.90;;;;;;;7.03;69.49;102160.59;15722346;28;20045;-63
2021/11/10 08:16:30;;;;;;;1999.90;999.90;;;;;;;7.66;68.02;102164.00;15715604;28;20045;-59
2021/11/10 08:24:05;;;;;;;1999.90;999.90;;;;;;;8.37;66.42;102164.72;15707735;28;20055;-61
2021/11/10 08:31:38;;;;;;;1999.90;999.90;;;;;;;9.20;63.36;102169.59;15700808;28;20048;-64
2021/11/10 08:39:11;;;;;;;1999.90;999.90;;;;;;;9.06;63.11;102168.56;15739628;28;20120;-62
2021/11/10 08:46:45;;;;;;;1999.90;999.90;;;;;;;9.94;61.89;102180.72;15722461;28;20519;-62
2021/11/10 08:54:19;;;;;;;1999.90;999.90;;;;;;;10.09;61.28;102164.66;15708132;28;20157;-63
2021/11/10 09:01:55;;;;;;;1999.90;999.90;;;;;;;11.05;58.73;102161.84;15704312;28;20036;-66
2021/11/10 09:09:28;;;;;;;1999.90;999.90;;;;;;;10.91;58.73;102163.72;15737628;28;20049;-63
2021/11/10 09:17:02;;;;;;;1999.90;999.90;;;;;;;11.33;58.55;102145.22;15737853;28;20748;-64
2021/11/10 09:24:35;;;;;;;1999.90;999.90;;;;;;;11.32;58.61;102147.19;15739177;28;20045;-63
2021/11/10 09:32:09;;;;;;;1999.90;999.90;;;;;;;11.54;57.99;102140.94;15720808;28;20114;-62
2021/11/10 09:39:41;;;;;;;1999.90;999.90;;;;;;;12.73;55.07;102130.88;15729984;28;20037;-64
2021/11/10 09:47:20;;;;;;;1999.90;999.90;;;;;;;13.49;54.01;102131.91;15740043;28;20562;-64
2021/11/10 09:54:53;;;;;;;1999.90;999.90;;;;;;;13.42;53.49;102111.06;15749422;28;20041;-63
2021/11/10 10:02:27;;;;;;;1999.90;999.90;;;;;;;15.99;49.67;102125.22;15715725;28;20048;-64
2021/11/10 10:10:00;;;;;;;1999.90;999.90;;;;;;;15.71;50.34;102112.72;15750182;28;20087;-65
2021/11/10 10:17:36;;;;;;;1999.90;999.90;;;;;;;16.75;47.84;102107.50;15715709;28;20041;-64
2021/11/10 10:25:09;;;;;;;1999.90;999.90;;;;;;;16.50;46.55;102114.91;15749806;28;20060;-64
2021/11/10 10:32:43;;;;;;;1999.90;999.90;;;;;;;16.47;46.99;102114.78;15749127;28;20056;-64
2021/11/10 10:40:16;;;;;;;1999.90;999.90;;;;;;;16.88;45.89;102102.75;15748283;28;20563;-64
2021/11/10 10:47:57;;;;;;;1999.90;999.90;;;;;;;18.23;43.41;102104.09;15728549;28;20098;-63
2021/11/10 10:55:32;;;;;;;1999.90;999.90;;;;;;;19.74;41.16;102102.75;15746489;28;20045;-64
2021/11/10 11:03:27;;;;;;;1999.90;999.90;;;;;;;18.88;41.28;102088.09;15747035;28;20044;-64
2021/11/10 11:11:01;;;;;;;1999.90;999.90;;;;;;;19.31;40.75;102107.19;15724570;28;20049;-63
2021/11/10 11:18:35;;;;;;;1999.90;999.90;;;;;;;18.55;40.53;102100.38;15732893;28;20049;-62
2021/11/10 11:26:32;;;;;;;1999.90;999.90;;;;;;;18.85;39.84;102071.81;15728901;28;20077;-64
2021/11/10 11:34:06;;;;;;;1999.90;999.90;;;;;;;19.22;39.52;102078.19;15742922;28;20066;-64
2021/11/10 11:41:41;;;;;;;1999.90;999.90;;;;;;;18.73;40.22;102079.16;15734343;28;20040;-64
2021/11/10 11:49:16;;;;;;;1999.90;999.90;;;;;;;18.56;41.42;102067.25;15722136;28;20055;-64
2021/11/10 11:56:49;;;;;;;1999.90;999.90;;;;;;;18.22;40.86;102060.91;15738973;28;20259;-64
2021/11/10 12:04:30;;;;;;;1999.90;999.90;;;;;;;19.81;38.60;102066.16;15722861;28;20409;-63
2021/11/10 12:12:11;;;;;;;1999.90;999.90;;;;;;;18.27;40.35;102055.03;15720684;28;20046;-64
2021/11/10 12:19:56;;;;;;;1999.90;999.90;;;;;;;21.49;35.45;102056.75;15722374;28;20409;-64
2021/11/10 12:27:37;;;;;;;1999.90;999.90;;;;;;;21.71;35.14;102057.97;15705163;28;20067;-64
2021/11/10 12:35:21;;;;;;;1999.90;999.90;;;;;;;20.66;36.33;102054.13;15722073;28;20059;-64
2021/11/10 12:42:57;;;;;;;1999.90;999.90;;;;;;;20.79;36.43;102048.31;15739315;28;20040;-65
2021/11/10 12:50:38;;;;;;;1999.90;999.90;;;;;;;15.31;46.90;102031.34;15751424;22;20048;-63
2021/11/10 12:58:16;;;;;;;1999.90;999.90;;;;;;;14.25;49.30;102038.38;15708161;28;20136;-64
2021/11/10 13:06:04;;;;;;;1999.90;999.90;;;;;;;14.58;49.10;102041.59;15664718;28;20041;-64
2021/11/10 13:13:37;;;;;;;1999.90;999.90;;;;;;;14.60;48.69;102026.09;15677239;28;20128;-62
2021/11/10 13:21:13;;;;;;;1999.90;999.90;;;;;;;13.81;51.17;102026.16;15676916;28;20048;-63
2021/11/10 13:28:46;;;;;;;1999.90;999.90;;;;;;;14.19;50.65;102015.25;15677639;28;20128;-63
2021/11/10 13:36:23;;;;;;;1999.90;999.90;;;;;;;15.22;47.68;102022.13;15658915;28;20049;-65
2021/11/10 13:43:58;;;;;;;1999.90;999.90;;;;;;;14.46;49.40;102028.19;15656195;28;20103;-62
2021/11/10 13:51:33;;;;;;;1999.90;999.90;;;;;;;13.06;53.28;102015.78;15634112;28;20057;-62
2021/11/10 13:59:11;;;;;;;1999.90;999.90;;;;;;;13.17;53.53;102015.22;15645018;28;20067;-64
2021/11/10 14:07:07;;;;;;;1999.90;999.90;;;;;;;12.67;53.83;102014.47;15669846;28;20060;-64
2021/11/10 14:14:40;;;;;;;1999.90;999.90;;;;;;;12.61;54.94;102007.34;15645712;28;20037;-62
2021/11/10 14:22:13;;;;;;;1999.90;999.90;;;;;;;12.43;56.54;102006.34;15664988;28;20064;-64
2021/11/10 14:29:52;;;;;;;1999.90;999.90;;;;;;;12.19;56.21;102005.75;15680365;28;20041;-60
2021/11/10 14:37:26;;;;;;;1999.90;999.90;;;;;;;11.66;57.84;101979.13;15638178;28;20045;-65
2021/11/10 14:45:17;;;;;;;1999.90;999.90;;;;;;;11.74;57.69;101975.59;15663261;28;20104;-64
2021/11/10 14:53:09;;;;;;;1999.90;999.90;;;;;;;11.79;57.33;101969.09;15661374;28;20490;-61
2021/11/10 15:00:42;;;;;;;1999.90;999.90;;;;;;;11.65;57.84;101957.91;15657403;28;20051;-62
2021/11/10 15:08:18;;;;;;;1999.90;999.90;;;;;;;11.39;58.99;101956.75;15661547;28;20074;-64
2021/11/10 15:15:53;;;;;;;1999.90;999.90;;;;;;;11.04;60.10;101949.84;15677368;28;20252;-64
2021/11/10 15:23:29;;;;;;;1999.90;999.90;;;;;;;10.61;60.78;101955.59;15662358;28;20531;-64
2021/11/10 15:31:04;;;;;;;1999.90;999.90;;;;;;;9.98;62.49;101961.47;15678856;28;20045;-63
2021/11/10 15:38:39;;;;;;;1999.90;999.90;;;;;;;9.83;63.08;101974.50;15640381;28;20235;-63
2021/11/10 15:46:12;;;;;;;1999.90;999.90;;;;;;;9.72;64.17;101995.25;15687361;28;20073;-61
2021/11/10 15:53:46;;;;;;;1999.90;999.90;;;;;;;9.89;63.77;102002.31;15679837;28;20147;-61
2021/11/10 16:01:20;;;;;;;1999.90;999.90;;;;;;;9.74;64.31;102006.13;15668782;28;20371;-62
2021/11/10 16:08:54;;;;;;;1999.90;999.90;;;;;;;9.42;64.94;102002.00;15730189;28;20040;-61
2021/11/10 16:16:29;;;;;;;1999.90;999.90;;;;;;;9.22;65.28;102021.69;15716304;28;20135;-63
2021/11/10 16:24:03;;;;;;;1999.90;999.90;;;;;;;8.88;66.22;102005.00;15691926;28;20063;-63
2021/11/10 16:31:53;;;;;;;1999.90;999.90;;;;;;;8.76;66.71;102022.06;15707140;28;20067;-64
2021/11/10 16:39:27;;;;;;;1999.90;999.90;;;;;;;8.62;67.72;102021.88;15692266;28;20041;-63
2021/11/10 16:47:00;;;;;;;1999.90;999.90;;;;;;;8.48;67.59;102025.59;15678056;28;20060;-62
2021/11/10 16:54:34;;;;;;;1999.90;999.90;;;;;;;8.37;67.82;102027.59;15693205;28;20040;-63
2021/11/10 17:02:08;;;;;;;1999.90;999.90;;;;;;;8.22;68.26;102031.25;15700819;28;20083;-63
2021/11/10 17:09:43;;;;;;;1999.90;999.90;;;;;;;8.21;67.96;102023.19;15682670;28;20549;-63
2021/11/10 17:17:16;;;;;;;1999.90;999.90;;;;;;;8.05;68.41;102011.31;15653845;28;20037;-62
2021/11/10 17:24:50;;;;;;;1999.90;999.90;;;;;;;7.90;68.62;102023.31;15686215;28;20083;-64
2021/11/10 17:32:23;;;;;;;1999.90;999.90;;;;;;;7.75;68.98;102015.03;15660532;28;20077;-61
2021/11/10 17:40:01;;;;;;;1999.90;999.90;;;;;;;7.59;69.04;102014.25;15700334;28;20033;-60
2021/11/10 17:47:40;;;;;;;1999.90;999.90;;;;;;;7.32;70.89;102019.31;15698343;28;20098;-62
2021/11/10 17:55:17;;;;;;;1999.90;999.90;;;;;;;7.52;69.35;102009.00;15691781;28;20080;-63
2021/11/10 18:02:51;;;;;;;1999.90;999.90;;;;;;;7.32;69.44;101997.91;15687795;28;20041;-61
2021/11/10 18:10:25;;;;;;;1999.90;999.90;;;;;;;7.26;69.86;102003.75;15666103;28;20061;-63
2021/11/10 18:17:58;;;;;;;1999.90;999.90;;;;;;;7.23;69.78;101994.88;15658436;28;20148;-63
2021/11/10 18:25:32;;;;;;;1999.90;999.90;;;;;;;7.18;69.69;102003.19;15689197;28;20064;-63
2021/11/10 18:33:04;;;;;;;1999.90;999.90;;;;;;;7.01;70.18;102007.38;15681901;28;20045;-64
2021/11/10 18:40:39;;;;;;;1999.90;999.90;;;;;;;7.09;70.39;102009.63;15648709;28;20135;-63
2021/11/10 18:48:12;;;;;;;1999.90;999.90;;;;;;;6.83;70.83;102009.59;15709405;22;20048;-83
2021/11/10 18:55:46;;;;;;;1999.90;999.90;;;;;;;6.83;70.19;102001.28;15685378;28;20041;-83
2021/11/10 19:03:20;;;;;;;1999.90;999.90;;;;;;;6.89;70.05;102010.44;15737757;22;20124;-65
2021/11/10 19:11:02;;;;;;;;;;;;;;;7.05;70.08;102016.81;15716928;28;20048;-65
2021/11/10 19:18:43;;;;;;;1999.90;999.90;;;;;;;6.96;70.90;102022.06;15740411;28;19920;-65
2021/11/10 19:26:17;;;;;;;1999.90;999.90;;;;;;;6.89;71.09;102018.78;15700726;28;20067;-64
2021/11/10 19:33:52;;;;;;;1999.90;999.90;;;;;;;6.63;70.89;102024.28;15721594;28;20132;-62
2021/11/10 19:41:27;;;;;;;1999.90;999.90;;;;;;;6.70;70.60;102018.47;15693768;28;20040;-63
2021/11/10 19:49:00;;;;;;;1999.90;999.90;;;;;;;6.63;71.22;102010.41;15739712;28;20044;-59
2021/11/10 19:56:36;;;;;;;1999.90;999.90;;;;;;;6.83;70.73;102003.22;15735146;28;20090;-60
2021/11/10 20:04:10;;;;;;;1999.90;999.90;;;;;;;6.60;71.61;102007.34;15723989;28;20041;-60
2021/11/10 20:11:44;;;;;;;1999.90;999.90;;;;;;;6.60;71.84;101996.25;15740043;28;20102;-57
2021/11/10 20:19:18;;;;;;;1999.90;999.90;;;;;;;6.54;71.20;102002.91;15740956;28;20045;-57
2021/11/10 20:26:54;;;;;;;1999.90;999.90;;;;;;;6.52;71.62;102003.19;15728342;28;20127;-60
2021/11/10 20:34:28;;;;;;;1999.90;999.90;;;;;;;6.45;71.56;102001.78;15717890;28;20057;-60
2021/11/10 20:42:02;;;;;;;1999.90;999.90;;;;;;;6.29;72.10;102012.00;15731845;28;20406;-59
2021/11/10 20:49:41;;;;;;;1999.90;999.90;;;;;;;6.43;71.01;102012.31;15706610;28;20572;-59
2021/11/10 20:57:15;;;;;;;1999.90;999.90;;;;;;;6.24;71.77;102012.81;15733873;28;20044;-58
2021/11/10 21:04:48;;;;;;;1999.90;999.90;;;;;;;6.10;72.00;102017.19;15737962;28;20114;-61
2021/11/10 21:12:22;;;;;;;1999.90;999.90;;;;;;;6.15;71.74;102022.78;15740016;28;20076;-59
2021/11/10 21:19:54;;;;;;;1999.90;999.90;;;;;;;6.07;71.81;102010.28;15740086;28;20174;-58
2021/11/10 21:27:32;;;;;;;1999.90;999.90;;;;;;;6.33;72.30;101997.31;15738508;28;20386;-59
2021/11/10 21:35:05;;;;;;;1999.90;999.90;;;;;;;6.29;72.14;102004.53;15730340;28;20132;-56
2021/11/10 21:42:39;;;;;;;1999.90;999.90;;;;;;;6.11;72.75;101993.91;15729365;28;20040;-55
2021/11/10 21:50:12;;;;;;;1999.90;999.90;;;;;;;6.20;74.06;101969.28;15751021;28;20051;-57
2021/11/10 21:57:56;;;;;;;1999.90;999.90;;;;;;;6.39;72.73;101972.38;15750443;28;20045;-56
2021/11/10 22:05:28;;;;;;;1999.90;999.90;;;;;;;6.19;73.20;101968.44;15749846;28;20513;-58
2021/11/10 22:13:07;;;;;;;1999.90;999.90;;;;;;;6.01;73.21;101968.94;15748461;28;20048;-58
2021/11/10 22:20:42;;;;;;;1999.90;999.90;;;;;;;5.92;71.97;101974.19;15748853;28;20048;-59
2021/11/10 22:28:16;;;;;;;1999.90;999.90;;;;;;;6.01;72.04;101968.94;15703866;28;20101;-59
2021/11/10 22:36:01;;;;;;;1999.90;999.90;;;;;;;5.69;72.68;101967.13;15724033;28;20032;-59
2021/11/10 22:43:49;;;;;;;1999.90;999.90;;;;;;;5.46;72.59;101965.63;15742611;28;20036;-60
2021/11/10 22:51:38;;;;;;;;;;;;;;;;;;;;;
2021/11/10 22:59:21;;;;;;;1999.90;999.90;;;;;;;5.70;72.92;101948.56;15704655;28;20040;-60
2021/11/10 23:07:03;;;;;;;1999.90;999.90;;;;;;;5.79;72.35;101953.31;15712866;28;20044;-59
2021/11/10 23:14:52;;;;;;;;;;;;;;;5.60;72.74;101954.06;15691425;28;20532;-58
2021/11/10 23:22:58;;;;;;;1999.90;999.90;;;;;;;5.50;73.02;101954.84;15689790;28;19924;-61
2021/11/10 23:30:42;;;;;;;1999.90;999.90;;;;;;;5.59;72.90;101961.53;15710899;28;20045;-58
2021/11/10 23:38:16;;;;;;;1999.90;999.90;;;;;;;5.43;72.85;101962.56;15720248;28;20044;-59
2021/11/10 23:45:50;;;;;;;1999.90;999.90;;;;;;;5.48;72.07;101968.13;15708249;28;20049;-58
2021/11/10 23:53:23;;;;;;;1999.90;999.90;;;;;;;5.19;72.33;101975.97;15725208;28;20500;-59
